createdAt,value
2023-03-19T00:01:15.050Z,101141.88
2023-03-19T00:03:45.829Z,101129.50
2023-03-19T00:06:14.488Z,101121.63
2023-03-19T00:08:43.211Z,101127.81
2023-03-19T00:11:12.792Z,101119.84
2023-03-19T00:13:41.575Z,101118.13
2023-03-19T00:16:09.982Z,101130.59
2023-03-19T00:18:38.781Z,101124.28
2023-03-19T00:21:07.361Z,101105.84
2023-03-19T00:23:36.983Z,101113.91
2023-03-19T00:26:05.560Z,101128.88
2023-03-19T00:28:34.346Z,101118.34
2023-03-19T00:31:14.482Z,101118.50
2023-03-19T00:33:43.451Z,101134.31
2023-03-19T00:36:12.156Z,101125.50
2023-03-19T00:38:42.312Z,101123.66
2023-03-19T00:41:11.035Z,101114.03
2023-03-19T00:43:39.847Z,101118.50
2023-03-19T00:46:08.104Z,101113.19
2023-03-19T00:48:36.795Z,101122.09
2023-03-19T00:51:09.770Z,101122.19
2023-03-19T00:53:43.534Z,101125.72
2023-03-19T00:56:13.753Z,101124.88
2023-03-19T00:58:42.502Z,101122.19
2023-03-19T01:01:12.992Z,101123.19
2023-03-19T01:03:42.223Z,101112.56
2023-03-19T01:06:10.721Z,101100.22
2023-03-19T01:08:39.341Z,101095.78
2023-03-19T01:11:14.547Z,101094.06
2023-03-19T01:13:43.441Z,101093.22
2023-03-19T01:16:11.818Z,101089.59
2023-03-19T01:18:40.886Z,101092.25
2023-03-19T01:21:09.285Z,101091.41
2023-03-19T01:23:44.448Z,101091.50
2023-03-19T01:26:13.268Z,101096.72
2023-03-19T01:28:43.619Z,101091.50
2023-03-19T01:31:12.860Z,101096.09
2023-03-19T01:33:42.910Z,101098.75
2023-03-19T01:36:17.368Z,101094.28
2023-03-19T01:38:58.211Z,101081.13
2023-03-19T01:41:26.728Z,101079.41
2023-03-19T01:43:59.551Z,101070.50
2023-03-19T01:46:41.480Z,101067.13
2023-03-19T01:49:36.737Z,101059.16
2023-03-19T01:52:19.441Z,101061.81
2023-03-19T01:55:14.218Z,101063.72
2023-03-19T01:57:51.397Z,101074.22
2023-03-19T02:00:38.457Z,101076.03
2023-03-19T02:03:07.410Z,101076.03
2023-03-19T02:05:36.856Z,101074.34
2023-03-19T02:08:11.617Z,101062.00
2023-03-19T02:10:41.677Z,101060.09
2023-03-19T02:13:10.087Z,101059.34
2023-03-19T02:15:38.944Z,101069.97
2023-03-19T02:18:08.479Z,101065.41
2023-03-19T02:21:06.296Z,101062.00
2023-03-19T02:23:56.343Z,101055.03
2023-03-19T02:26:43.605Z,101059.34
2023-03-19T02:29:12.164Z,101067.31
2023-03-19T02:31:41.664Z,101056.69
2023-03-19T02:34:10.161Z,101067.31
2023-03-19T02:36:49.434Z,101070.97
2023-03-19T02:39:26.425Z,101074.56
2023-03-19T02:41:55.188Z,101074.56
2023-03-19T02:44:26.577Z,101071.19
2023-03-19T02:46:55.440Z,101069.25
2023-03-19T02:49:25.104Z,101069.34
2023-03-19T02:51:53.852Z,101072.00
2023-03-19T02:54:22.184Z,101082.63
2023-03-19T02:56:52.779Z,101080.81
2023-03-19T02:59:21.694Z,101073.84
2023-03-19T03:01:51.135Z,101076.50
2023-03-19T03:04:19.580Z,101064.16
2023-03-19T03:06:48.440Z,101073.09
2023-03-19T03:09:17.337Z,101076.59
2023-03-19T03:11:46.290Z,101074.91
2023-03-19T03:14:14.660Z,101076.94
2023-03-19T03:16:43.489Z,101082.00
2023-03-19T03:19:12.349Z,101079.59
2023-03-19T03:21:41.463Z,101079.50
2023-03-19T03:24:10.020Z,101075.03
2023-03-19T03:26:39.300Z,101078.63
2023-03-19T03:29:07.869Z,101073.31
2023-03-19T03:31:36.802Z,101079.59
2023-03-19T03:34:05.232Z,101083.09
2023-03-19T03:36:34.065Z,101089.25
2023-03-19T03:39:02.472Z,101086.72
2023-03-19T03:41:31.741Z,101085.13
2023-03-19T03:44:00.152Z,101084.19
2023-03-19T03:46:29.150Z,101089.50
2023-03-19T03:48:58.212Z,101085.97
2023-03-19T03:51:26.991Z,101086.09
2023-03-19T03:53:55.393Z,101090.44
2023-03-19T03:56:24.054Z,101088.75
2023-03-19T03:58:52.632Z,101094.91
2023-03-19T04:01:21.622Z,101097.56
2023-03-19T04:03:55.261Z,101095.84
2023-03-19T04:06:24.610Z,101091.63
2023-03-19T04:09:17.402Z,101104.69
2023-03-19T04:11:46.273Z,101099.47
2023-03-19T04:14:15.692Z,101107.44
2023-03-19T04:16:44.612Z,101105.75
2023-03-19T04:19:14.549Z,101111.94
2023-03-19T04:21:43.215Z,101106.72
2023-03-19T04:24:11.786Z,101112.03
2023-03-19T04:26:40.963Z,101116.50
2023-03-19T04:29:09.680Z,101121.81
2023-03-19T04:31:39.449Z,101119.47
2023-03-19T04:34:08.172Z,101125.41
2023-03-19T04:36:36.949Z,101134.34
2023-03-19T04:39:06.072Z,101133.47
2023-03-19T04:41:35.548Z,101139.78
2023-03-19T04:44:22.174Z,101136.25
2023-03-19T04:46:50.998Z,101146.03
2023-03-19T04:49:21.758Z,101143.38
2023-03-19T04:51:52.738Z,101148.78
2023-03-19T04:54:21.271Z,101149.03
2023-03-19T04:56:50.537Z,101152.41
2023-03-19T04:59:23.089Z,101152.53
2023-03-19T05:01:53.028Z,101157.00
2023-03-19T05:04:25.207Z,101159.63
2023-03-19T05:06:58.498Z,101161.47
2023-03-19T05:09:26.809Z,101162.63
2023-03-19T05:11:56.767Z,101166.88
2023-03-19T05:14:25.599Z,101163.25
2023-03-19T05:17:11.378Z,101164.13
2023-03-19T05:20:00.038Z,101161.66
2023-03-19T05:22:29.097Z,101154.53
2023-03-19T05:24:58.830Z,101171.22
2023-03-19T05:27:29.167Z,101177.50
2023-03-19T05:30:07.009Z,101163.47
2023-03-19T05:33:00.147Z,101173.13
2023-03-19T05:35:41.423Z,101179.41
2023-03-19T05:38:20.952Z,101175.78
2023-03-19T05:40:56.377Z,101181.09
2023-03-19T05:43:37.824Z,101181.09
2023-03-19T05:46:10.205Z,101183.00
2023-03-19T05:48:39.407Z,101187.47
2023-03-19T05:51:09.495Z,101188.31
2023-03-19T05:53:42.657Z,101191.72
2023-03-19T05:56:46.180Z,101186.53
2023-03-19T05:59:41.005Z,101183.00
2023-03-19T06:02:28.024Z,101190.03
2023-03-19T06:05:12.603Z,101190.97
2023-03-19T06:07:41.104Z,101189.06
2023-03-19T06:10:16.652Z,101195.34
2023-03-19T06:12:44.980Z,101191.06
2023-03-19T06:15:22.944Z,101194.50
2023-03-19T06:18:08.844Z,101199.81
2023-03-19T06:20:37.828Z,101212.94
2023-03-19T06:23:06.717Z,101216.59
2023-03-19T06:25:36.125Z,101211.47
2023-03-19T06:28:05.932Z,101213.19
2023-03-19T06:30:40.264Z,101202.56
2023-03-19T06:33:32.469Z,101212.22
2023-03-19T06:36:02.058Z,101214.88
2023-03-19T06:38:33.758Z,101214.03
2023-03-19T06:41:02.852Z,101220.28
2023-03-19T06:43:32.419Z,101222.09
2023-03-19T06:46:01.684Z,101225.50
2023-03-19T06:48:30.356Z,101224.66
2023-03-19T06:50:59.402Z,101232.50
2023-03-19T06:53:28.334Z,101229.84
2023-03-19T06:55:57.259Z,101236.97
2023-03-19T06:58:25.941Z,101228.88
2023-03-19T07:00:54.655Z,101236.84
2023-03-19T07:03:23.379Z,101244.81
2023-03-19T07:05:52.359Z,101244.72
2023-03-19T07:08:20.820Z,101241.13
2023-03-19T07:10:49.717Z,101238.47
2023-03-19T07:13:18.108Z,101239.31
2023-03-19T07:15:47.558Z,101239.31
2023-03-19T07:23:39.539Z,101226.97
2023-03-19T07:26:08.490Z,101235.81
2023-03-19T07:28:36.940Z,101240.03
2023-03-19T07:31:07.312Z,101248.00
2023-03-19T07:33:36.323Z,101252.25
2023-03-19T07:36:06.170Z,101262.78
2023-03-19T07:38:34.468Z,101256.81
2023-03-19T07:41:04.093Z,101260.31
2023-03-19T07:43:32.469Z,101262.47
2023-03-19T07:46:01.447Z,101263.94
2023-03-19T07:48:30.126Z,101262.38
2023-03-19T07:50:58.941Z,101273.66
2023-03-19T07:53:27.381Z,101272.16
2023-03-19T07:55:56.616Z,101274.47
2023-03-19T07:58:25.211Z,101279.94
2023-03-19T08:00:54.666Z,101271.47
2023-03-19T08:03:23.096Z,101272.28
2023-03-19T08:05:52.661Z,101257.41
2023-03-19T08:08:21.207Z,101265.97
2023-03-19T08:10:51.042Z,101256.53
2023-03-19T08:13:19.676Z,101260.56
2023-03-19T08:15:50.375Z,101264.06
2023-03-19T08:18:19.049Z,101266.25
2023-03-19T08:20:47.960Z,101264.88
2023-03-19T08:23:17.663Z,101264.06
2023-03-19T08:25:46.417Z,101271.53
2023-03-19T08:28:14.884Z,101269.16
2023-03-19T08:30:43.595Z,101273.13
2023-03-19T08:33:12.226Z,101273.84
2023-03-19T08:35:41.652Z,101269.69
2023-03-19T08:38:10.661Z,101270.19
2023-03-19T08:40:39.393Z,101272.13
2023-03-19T08:43:07.995Z,101276.28
2023-03-19T08:45:37.415Z,101284.69
2023-03-19T08:48:05.917Z,101286.19
2023-03-19T08:50:35.100Z,101283.25
2023-03-19T08:53:03.807Z,101284.94
2023-03-19T08:55:32.655Z,101290.88
2023-03-19T08:58:01.279Z,101292.63
2023-03-19T09:00:30.057Z,101286.00
2023-03-19T09:02:58.651Z,101294.06
2023-03-19T09:05:29.713Z,101283.03
2023-03-19T09:07:58.406Z,101291.22
2023-03-19T09:10:27.212Z,101287.28
2023-03-19T09:12:55.872Z,101288.03
2023-03-19T09:15:25.001Z,101297.50
2023-03-19T09:17:53.425Z,101295.38
2023-03-19T09:20:22.165Z,101293.56
2023-03-19T09:22:50.753Z,101296.03
2023-03-19T09:25:19.656Z,101295.78
2023-03-19T09:27:49.450Z,101304.41
2023-03-19T09:30:18.208Z,101296.66
2023-03-19T09:32:46.701Z,101298.34
2023-03-19T09:35:16.121Z,101302.72
2023-03-19T09:37:44.613Z,101303.56
2023-03-19T09:40:42.130Z,101310.56
2023-03-19T09:43:49.582Z,101311.53
2023-03-19T09:46:22.886Z,101307.91
2023-03-19T09:49:41.567Z,101309.81
2023-03-19T09:53:17.403Z,101307.06
2023-03-19T09:55:52.646Z,101309.81
2023-03-19T09:58:47.942Z,101306.03
2023-03-19T10:01:37.417Z,101305.16
2023-03-19T10:04:28.085Z,101307.59
2023-03-19T10:07:12.861Z,101299.63
2023-03-19T10:10:15.244Z,101310.16
2023-03-19T10:12:48.998Z,101304.63
2023-03-19T10:15:33.189Z,101299.22
2023-03-19T10:18:36.957Z,101290.91
2023-03-19T10:21:16.409Z,101302.41
2023-03-19T10:24:00.655Z,101299.41
2023-03-19T10:26:34.705Z,101296.88
2023-03-19T10:29:18.991Z,101283.38
2023-03-19T10:32:19.166Z,101295.69
2023-03-19T10:34:54.089Z,101290.28
2023-03-19T10:37:28.691Z,101284.13
2023-03-19T10:39:59.279Z,101283.16
2023-03-19T10:43:11.350Z,101284.63
2023-03-19T10:45:39.887Z,101282.63
2023-03-19T10:48:13.114Z,101271.97
2023-03-19T10:50:54.070Z,101278.91
2023-03-19T10:53:35.339Z,101274.34
2023-03-19T10:56:23.343Z,101277.50
2023-03-19T10:58:59.027Z,101274.09
2023-03-19T11:01:39.991Z,101269.41
2023-03-19T11:04:22.801Z,101263.03
2023-03-19T11:07:02.618Z,101262.19
2023-03-19T11:09:47.048Z,101253.28
2023-03-19T11:12:35.112Z,101250.47
2023-03-19T11:15:06.924Z,101254.84
2023-03-19T11:18:20.034Z,101248.69
2023-03-19T11:21:30.622Z,101243.38
2023-03-19T11:24:03.443Z,101244.13
2023-03-19T11:26:32.721Z,101239.44
2023-03-19T11:29:05.195Z,101244.97
2023-03-19T11:31:54.722Z,101235.06
2023-03-19T11:34:48.855Z,101234.53
2023-03-19T11:37:44.753Z,101232.22
2023-03-19T11:40:31.923Z,101222.47
2023-03-19T11:43:17.894Z,101222.47
2023-03-19T11:46:48.349Z,101214.69
2023-03-19T11:49:51.050Z,101210.53
2023-03-19T11:52:33.727Z,101205.84
2023-03-19T11:55:42.619Z,101195.41
2023-03-19T11:58:55.638Z,101188.63
2023-03-19T12:02:23.756Z,101178.97
2023-03-19T12:05:12.615Z,101178.97
2023-03-19T12:08:33.496Z,101176.53
2023-03-19T12:11:36.267Z,101164.13
2023-03-19T12:14:16.858Z,101174.03
2023-03-19T12:17:13.567Z,101173.50
2023-03-19T12:20:04.535Z,101170.34
2023-03-19T12:23:26.769Z,101163.25
2023-03-19T12:26:09.055Z,101166.44
2023-03-19T12:29:10.196Z,101167.06
2023-03-19T12:32:05.490Z,101168.34
2023-03-19T12:35:17.106Z,101157.13
2023-03-19T12:38:39.222Z,101160.28
2023-03-19T12:41:15.266Z,101157.88
2023-03-19T12:44:02.036Z,101154.16
2023-03-19T12:46:59.261Z,101152.69
2023-03-19T12:49:36.484Z,101155.97
2023-03-19T12:52:24.468Z,101155.78
2023-03-19T12:55:13.464Z,101150.78
2023-03-19T12:58:12.325Z,101139.94
2023-03-19T13:01:12.656Z,101133.34
2023-03-19T13:04:07.364Z,101143.72
2023-03-19T13:07:02.283Z,101138.34
2023-03-19T13:09:51.245Z,101135.41
2023-03-19T13:12:32.362Z,101128.22
2023-03-19T13:15:39.219Z,101128.81
2023-03-19T13:18:33.590Z,101124.66
2023-03-19T13:21:11.641Z,101123.22
2023-03-19T13:23:40.393Z,101114.41
2023-03-19T13:26:12.894Z,101115.69
2023-03-19T13:29:27.726Z,101122.41
2023-03-19T13:32:43.866Z,101118.81
2023-03-19T13:35:46.826Z,101114.41
2023-03-19T13:38:24.515Z,101117.44
2023-03-19T13:40:57.654Z,101117.13
2023-03-19T13:43:29.570Z,101121.09
2023-03-19T13:46:12.392Z,101119.00
2023-03-19T13:48:50.760Z,101113.69
2023-03-19T13:51:19.235Z,101115.81
2023-03-19T13:54:12.991Z,101110.94
2023-03-19T13:57:18.777Z,101111.56
2023-03-19T13:59:50.638Z,101105.44
2023-03-19T14:02:22.160Z,101099.03
2023-03-19T14:05:14.409Z,101101.78
2023-03-19T14:07:44.078Z,101101.06
2023-03-19T14:10:29.890Z,101097.56
2023-03-19T14:13:08.643Z,101094.44
2023-03-19T14:15:41.084Z,101097.22
2023-03-19T14:18:14.538Z,101084.28
2023-03-19T14:20:59.357Z,101085.38
2023-03-19T14:23:39.633Z,101088.22
2023-03-19T14:26:18.130Z,101083.38
2023-03-19T14:28:50.358Z,101088.03
2023-03-19T14:31:50.516Z,101086.31
2023-03-19T14:34:42.048Z,101084.69
2023-03-19T14:37:28.633Z,101080.19
2023-03-19T14:40:14.914Z,101073.59
2023-03-19T14:43:18.118Z,101075.31
2023-03-19T14:46:05.310Z,101073.28
2023-03-19T14:48:55.523Z,101074.13
2023-03-19T14:51:58.768Z,101077.81
2023-03-19T14:55:09.179Z,101076.97
2023-03-19T14:57:37.846Z,101076.13
2023-03-19T15:00:13.162Z,101076.13
2023-03-19T15:02:50.241Z,101073.47
2023-03-19T15:05:30.830Z,101067.44
2023-03-19T15:08:08.059Z,101071.66
2023-03-19T15:11:01.092Z,101076.97
2023-03-19T15:14:39.105Z,101076.78
2023-03-19T15:17:30.108Z,101072.66
2023-03-19T15:20:02.319Z,101076.13
2023-03-19T15:22:34.981Z,101073.47
2023-03-19T15:25:16.494Z,101072.50
2023-03-19T15:27:45.971Z,101084.22
2023-03-19T15:30:24.826Z,101083.38
2023-03-19T15:33:09.109Z,101078.28
2023-03-19T15:35:41.244Z,101082.84
2023-03-19T15:38:11.547Z,101080.31
2023-03-19T15:40:40.999Z,101082.97
2023-03-19T15:43:12.005Z,101075.00
2023-03-19T15:45:42.148Z,101086.47
2023-03-19T15:48:35.111Z,101081.38
2023-03-19T15:51:04.249Z,101078.72
2023-03-19T15:53:34.314Z,101086.69
2023-03-19T15:56:03.791Z,101081.47
2023-03-19T15:58:38.839Z,101085.94
2023-03-19T16:01:08.615Z,101089.59
2023-03-19T16:04:09.107Z,101086.94
2023-03-19T16:06:42.259Z,101080.88
2023-03-19T16:09:14.228Z,101086.06
2023-03-19T16:11:44.352Z,101082.56
2023-03-19T16:14:23.229Z,101082.56
2023-03-19T16:16:52.616Z,101095.19
2023-03-19T16:19:32.784Z,101094.19
2023-03-19T16:22:01.747Z,101092.41
2023-03-19T16:24:39.209Z,101095.91
2023-03-19T16:27:12.787Z,101104.81
2023-03-19T16:30:08.901Z,101105.81
2023-03-19T16:32:37.573Z,101106.63
2023-03-19T16:35:15.651Z,101114.50
2023-03-19T16:37:45.058Z,101110.13
2023-03-19T16:40:14.294Z,101124.16
2023-03-19T16:42:51.218Z,101125.03
2023-03-19T16:45:31.356Z,101121.50
2023-03-19T16:48:03.700Z,101125.13
2023-03-19T16:50:43.701Z,101140.09
2023-03-19T16:53:23.005Z,101145.38
2023-03-19T16:55:53.326Z,101145.38
2023-03-19T16:58:42.899Z,101143.59
2023-03-19T17:01:25.532Z,101146.25
2023-03-19T17:03:54.309Z,101149.03
2023-03-19T17:06:23.249Z,101153.34
2023-03-19T17:08:51.798Z,101156.88
2023-03-19T17:11:29.990Z,101151.56
2023-03-19T17:13:59.244Z,101153.25
2023-03-19T17:16:28.516Z,101150.69
2023-03-19T17:18:57.248Z,101147.09
2023-03-19T17:21:36.128Z,101155.91
2023-03-19T17:24:29.635Z,101147.09
2023-03-19T17:27:00.885Z,101155.06
2023-03-19T17:29:30.653Z,101163.88
2023-03-19T17:32:04.372Z,101162.19
2023-03-19T17:34:33.333Z,101159.41
2023-03-19T17:37:04.151Z,101166.63
2023-03-19T17:39:33.065Z,101163.88
2023-03-19T17:42:01.845Z,101154.34
2023-03-19T17:44:30.257Z,101160.59
2023-03-19T17:46:59.095Z,101163.97
2023-03-19T17:49:29.451Z,101160.59
2023-03-19T17:51:58.645Z,101160.47
2023-03-19T17:54:27.451Z,101163.88
2023-03-19T17:56:56.362Z,101170.16
2023-03-19T17:59:24.872Z,101176.22
2023-03-19T18:01:54.019Z,101176.84
2023-03-19T18:04:22.695Z,101174.78
2023-03-19T18:06:55.752Z,101182.56
2023-03-19T18:09:27.157Z,101182.56
2023-03-19T18:11:56.357Z,101186.06
2023-03-19T18:14:25.003Z,101190.53
2023-03-19T18:16:53.765Z,101199.34
2023-03-19T18:19:32.967Z,101186.78
2023-03-19T18:22:01.902Z,101190.41
2023-03-19T18:24:30.477Z,101204.44
2023-03-19T18:26:59.240Z,101209.75
2023-03-19T18:29:27.666Z,101209.97
2023-03-19T18:31:56.441Z,101206.56
2023-03-19T18:34:25.032Z,101208.47
2023-03-19T18:36:53.897Z,101205.94
2023-03-19T18:39:22.361Z,101212.22
2023-03-19T18:41:51.308Z,101209.66
2023-03-19T18:44:19.876Z,101207.94
2023-03-19T18:46:48.693Z,101214.22
2023-03-19T18:49:22.347Z,101226.75
2023-03-19T18:52:02.017Z,101222.28
2023-03-19T18:54:32.103Z,101225.06
2023-03-19T18:57:01.322Z,101217.22
2023-03-19T18:59:32.905Z,101215.50
2023-03-19T19:02:19.782Z,101214.56
2023-03-19T19:04:48.739Z,101210.84
2023-03-19T19:07:17.795Z,101215.41
2023-03-19T19:09:46.529Z,101224.84
2023-03-19T19:12:18.278Z,101222.28
2023-03-19T19:14:47.459Z,101225.69
2023-03-19T19:17:19.497Z,101214.22
2023-03-19T19:19:48.021Z,101234.63
2023-03-19T19:22:17.857Z,101229.31
2023-03-19T19:24:46.449Z,101233.66
2023-03-19T19:27:23.146Z,101233.75
2023-03-19T19:29:51.675Z,101238.13
2023-03-19T19:32:26.463Z,101239.94
2023-03-19T19:34:55.136Z,101248.66
2023-03-19T19:37:24.212Z,101246.09
2023-03-19T19:39:52.843Z,101238.13
2023-03-19T19:42:22.475Z,101239.81
2023-03-19T19:44:54.827Z,101243.34
2023-03-19T19:47:23.676Z,101233.66
2023-03-19T19:49:52.132Z,101237.16
2023-03-19T19:52:20.995Z,101234.41
2023-03-19T19:54:51.945Z,101235.13
2023-03-19T19:57:26.989Z,101225.25
2023-03-19T19:59:55.846Z,101227.59
2023-03-19T20:02:31.278Z,101225.78
2023-03-19T20:05:00.028Z,101233.56
2023-03-19T20:07:29.169Z,101235.34
2023-03-19T20:09:57.799Z,101245.03
2023-03-19T20:12:32.293Z,101238.00
2023-03-19T20:15:01.738Z,101250.09
2023-03-19T20:17:30.955Z,101234.16
2023-03-19T20:19:59.478Z,101245.53
2023-03-19T20:22:28.294Z,101247.22
2023-03-19T20:24:57.892Z,101248.19
2023-03-19T20:27:31.212Z,101249.88
2023-03-19T20:29:59.793Z,101256.16
2023-03-19T20:32:38.033Z,101244.56
2023-03-19T20:35:17.553Z,101247.97
2023-03-19T20:37:47.286Z,101251.38
2023-03-19T20:40:16.190Z,101255.00
2023-03-19T20:42:50.598Z,101247.97
2023-03-19T20:45:34.665Z,101250.72
2023-03-19T20:48:04.448Z,101251.59
2023-03-19T20:50:33.734Z,101253.19
2023-03-19T20:53:04.039Z,101250.53
2023-03-19T20:55:45.247Z,101249.69
2023-03-19T20:58:28.980Z,101246.50
2023-03-19T21:00:58.767Z,101249.25
2023-03-19T21:03:31.858Z,101256.28
2023-03-19T21:06:04.457Z,101245.03
2023-03-19T21:08:41.294Z,101249.50
2023-03-19T21:11:22.335Z,101253.09
2023-03-19T21:13:53.473Z,101251.28
2023-03-19T21:16:25.515Z,101251.41
2023-03-19T21:18:54.625Z,101244.38
2023-03-19T21:21:35.524Z,101249.69
2023-03-19T21:24:14.478Z,101246.19
2023-03-19T21:26:43.242Z,101244.38
2023-03-19T21:29:28.775Z,101245.22
2023-03-19T21:31:58.152Z,101251.50
2023-03-19T21:34:28.781Z,101247.88
2023-03-19T21:36:57.540Z,101245.22
2023-03-19T21:39:26.520Z,101247.88
2023-03-19T21:41:55.115Z,101247.03
2023-03-19T21:44:24.856Z,101236.50
2023-03-19T21:46:53.532Z,101247.03
2023-03-19T21:49:22.936Z,101247.88
2023-03-19T21:51:51.626Z,101254.16
2023-03-19T21:54:20.683Z,101254.16
2023-03-19T21:56:49.462Z,101252.34
2023-03-19T21:59:31.979Z,101243.66
2023-03-19T22:02:01.766Z,101243.53
2023-03-19T22:04:31.237Z,101237.34
2023-03-19T22:06:59.873Z,101231.00
2023-03-19T22:09:29.264Z,101231.19
2023-03-19T22:11:58.052Z,101226.72
2023-03-19T22:14:27.192Z,101233.97
2023-03-19T22:16:56.600Z,101234.19
2023-03-19T22:19:26.116Z,101238.66
2023-03-19T22:21:55.723Z,101232.47
2023-03-19T22:24:24.731Z,101234.19
2023-03-19T22:26:57.385Z,101235.13
2023-03-19T22:29:26.523Z,101221.03
2023-03-19T22:31:57.889Z,101226.44
2023-03-19T22:34:28.222Z,101227.31
2023-03-19T22:36:56.867Z,101224.66
2023-03-19T22:39:26.034Z,101218.47
2023-03-19T22:41:54.819Z,101210.59
2023-03-19T22:44:29.841Z,101214.97
2023-03-19T22:46:59.734Z,101216.78
2023-03-19T22:49:30.122Z,101210.59
2023-03-19T22:51:58.903Z,101201.69
2023-03-19T22:54:27.910Z,101199.97
2023-03-19T22:56:56.614Z,101203.59
2023-03-19T22:59:25.708Z,101205.28
2023-03-19T23:01:54.427Z,101204.44
2023-03-19T23:04:29.850Z,101198.41
2023-03-19T23:06:59.464Z,101202.63
2023-03-19T23:09:33.901Z,101199.13
2023-03-19T23:12:03.371Z,101196.59
2023-03-19T23:14:32.480Z,101199.13
2023-03-19T23:17:03.991Z,101201.06
2023-03-19T23:19:35.603Z,101191.28
2023-03-19T23:22:05.842Z,101193.94
2023-03-19T23:24:34.944Z,101194.91
2023-03-19T23:27:03.956Z,101199.25
2023-03-19T23:29:36.870Z,101192.25
2023-03-19T23:32:06.197Z,101198.50
2023-03-19T23:34:42.451Z,101193.19
2023-03-19T23:37:11.277Z,101197.56
2023-03-19T23:39:40.238Z,101191.50
2023-03-19T23:42:10.195Z,101183.53
2023-03-19T23:44:39.097Z,101191.50
2023-03-19T23:47:08.832Z,101181.09
2023-03-19T23:49:38.062Z,101192.44
2023-03-19T23:52:06.724Z,101188.97
2023-03-19T23:54:39.547Z,101186.41
2023-03-19T23:57:11.723Z,101188.13
2023-03-19T23:59:42.593Z,101188.13
